Time;durP1;ratioP1;P1;durP2;ratioP2;P2;SDS_P1;SDS_P2;PMS_P1;PMS_P2;Temp;Humidity;BMP_temperature;BMP_pressure;BME280_temperature;BME280_humidity;BME280_pressure;Samples;Min_cycle;Max_cycle;Signal;HPM_P1;HPM_P2
2023/03/01 00:02:21;;;;;;;6.10;0.55;;;;;;;-142.37;100.00;59669.53;5093537;28;20157;-58
2023/03/01 00:04:46;;;;;;;3.58;0.47;;;;;;;-142.37;100.00;59669.53;5094156;28;20362;-59
2023/03/01 00:07:12;;;;;;;3.00;0.40;;;;;;;-142.37;100.00;59669.53;5094060;28;20114;-60
2023/03/01 00:09:39;;;;;;;4.57;1.13;;;;;;;-142.37;100.00;59669.53;5093560;28;20031;-59
2023/03/01 00:12:06;;;;;;;5.63;0.57;;;;;;;-142.37;100.00;59669.53;5091897;28;20048;-59
2023/03/01 00:14:32;;;;;;;3.88;0.60;;;;;;;-142.37;100.00;59669.53;5093567;28;20531;-58
2023/03/01 00:16:58;;;;;;;2.95;0.50;;;;;;;-142.37;100.00;59669.53;5091815;28;20055;-63
2023/03/01 00:19:23;;;;;;;3.85;0.73;;;;;;;-142.37;100.00;59669.53;5091855;28;20048;-60
2023/03/01 00:21:49;;;;;;;2.60;0.45;;;;;;;-142.37;100.00;59669.53;5093550;28;20384;-59
2023/03/01 00:24:15;;;;;;;4.57;0.40;;;;;;;-142.37;100.00;59669.53;5092944;28;20028;-59
2023/03/01 00:26:40;;;;;;;3.97;0.55;;;;;;;-142.37;100.00;59669.53;5091627;28;20081;-58
2023/03/01 00:29:06;;;;;;;3.92;1.00;;;;;;;-142.37;100.00;59669.53;5090967;28;20107;-59
2023/03/01 00:31:33;;;;;;;10.73;1.38;;;;;;;-142.37;100.00;59669.53;5092534;28;20028;-59
2023/03/01 00:34:01;;;;;;;4.55;0.68;;;;;;;-142.37;100.00;59669.53;5093119;28;20468;-60
2023/03/01 00:36:30;;;;;;;6.22;1.20;;;;;;;-142.37;100.00;59669.53;5091724;28;20035;-61
2023/03/01 00:38:56;;;;;;;5.68;0.50;;;;;;;-142.37;100.00;59669.53;5093083;28;20028;-59
2023/03/01 00:41:22;;;;;;;4.65;0.52;;;;;;;-142.37;100.00;59669.53;5091693;28;20024;-60
2023/03/01 00:43:49;;;;;;;7.35;1.08;;;;;;;-142.37;100.00;59669.53;5092880;28;20032;-59
2023/03/01 00:46:21;;;;;;;3.90;0.82;;;;;;;-142.37;100.00;59669.53;5091400;28;20524;-59
2023/03/01 00:48:47;;;;;;;6.55;0.63;;;;;;;-142.37;100.00;59669.53;5092862;28;20028;-60
2023/03/01 00:51:17;;;;;;;1.77;0.40;;;;;;;-142.37;100.00;59669.53;5092414;28;20069;-60
2023/03/01 00:53:44;;;;;;;3.03;0.57;;;;;;;-142.37;100.00;59669.53;5093045;28;20501;-59
2023/03/01 00:56:11;;;;;;;5.63;0.70;;;;;;;-142.37;100.00;59669.53;5092616;28;20480;-60
2023/03/01 00:58:38;;;;;;;5.63;0.57;;;;;;;-142.37;100.00;59669.53;5091286;28;20585;-60
2023/03/01 01:01:18;;;;;;;7.75;0.70;;;;;;;-142.37;100.00;59669.53;5092701;28;20028;-59
2023/03/01 01:03:52;;;;;;;3.45;0.43;;;;;;;-142.37;100.00;59669.53;5092620;28;20024;-60
2023/03/01 01:06:21;;;;;;;7.55;0.60;;;;;;;-142.37;100.00;59669.53;5091220;28;20024;-60
2023/03/01 01:08:48;;;;;;;8.13;0.70;;;;;;;-142.37;100.00;59669.53;5092461;28;20055;-62
2023/03/01 01:11:14;;;;;;;2.08;0.32;;;;;;;-142.37;100.00;59669.53;5092088;28;20558;-59
2023/03/01 01:13:40;;;;;;;5.97;1.17;;;;;;;-142.37;100.00;59669.53;5090998;28;20020;-60
2023/03/01 01:16:06;;;;;;;5.18;0.68;;;;;;;-142.37;100.00;59669.53;5091183;28;20086;-60
2023/03/01 01:18:32;;;;;;;2.42;0.30;;;;;;;-142.37;100.00;59669.53;5090844;28;20472;-60
2023/03/01 01:21:04;;;;;;;3.35;0.47;;;;;;;-142.37;100.00;59669.53;5090762;28;20551;-61
2023/03/01 01:23:30;;;;;;;5.13;0.77;;;;;;;-142.37;100.00;59669.53;5092286;28;20031;-58
2023/03/01 01:25:55;;;;;;;7.40;0.57;;;;;;;-142.37;100.00;59669.53;5091242;28;20036;-63
2023/03/01 01:28:21;;;;;;;2.30;0.52;;;;;;;-142.37;100.00;59669.53;5092311;28;20108;-60
2023/03/01 01:30:47;;;;;;;7.88;1.00;;;;;;;-142.37;100.00;59669.53;5092215;28;20073;-61
2023/03/01 01:33:12;;;;;;;4.05;0.40;;;;;;;-142.37;100.00;59669.53;5090492;28;20031;-60
2023/03/01 01:35:38;;;;;;;3.88;0.80;;;;;;;-142.37;100.00;59669.53;5090676;28;20024;-60
2023/03/01 01:38:03;;;;;;;2.67;0.30;;;;;;;-142.37;100.00;59669.53;5092177;28;20090;-61
2023/03/01 01:40:29;;;;;;;2.83;0.52;;;;;;;-142.37;100.00;59669.53;5091937;28;20050;-61
2023/03/01 01:42:55;;;;;;;4.90;0.50;;;;;;;-142.37;100.00;59669.53;5095173;28;20040;-60
2023/03/01 01:45:34;;;;;;;7.65;0.90;;;;;;;-142.37;100.00;59669.53;5095097;28;20059;-60
2023/03/01 01:48:22;;;;;;;6.15;0.50;;;;;;;-142.37;100.00;59669.53;5095035;28;20031;-60
2023/03/01 01:50:55;;;;;;;4.35;0.43;;;;;;;-142.37;100.00;59669.53;5096145;28;20361;-61
2023/03/01 01:53:21;;;;;;;3.15;0.40;;;;;;;-142.37;100.00;59669.53;5095428;28;20032;-61
2023/03/01 01:56:00;;;;;;;3.72;0.63;;;;;;;-142.37;100.00;59669.53;5094925;28;20020;-61
2023/03/01 01:58:29;;;;;;;3.42;0.43;;;;;;;-142.37;100.00;59669.53;5096064;28;20031;-60
2023/03/01 02:00:55;;;;;;;4.10;0.60;;;;;;;-142.37;100.00;59669.53;5094511;28;20468;-59
2023/03/01 02:03:32;;;;;;;3.08;0.40;;;;;;;-142.37;100.00;59669.53;5096273;28;20036;-60
2023/03/01 02:06:10;;;;;;;3.17;0.45;;;;;;;-142.37;100.00;59669.53;5096639;28;20499;-58
2023/03/01 02:08:38;;;;;;;3.15;0.82;;;;;;;-142.37;100.00;59669.53;5096329;28;20032;-60
2023/03/01 02:11:05;;;;;;;2.40;0.45;;;;;;;-142.37;100.00;59669.53;5095904;28;20036;-59
2023/03/01 02:13:35;;;;;;;5.00;0.50;;;;;;;-142.37;100.00;59669.53;5094698;28;20028;-59
2023/03/01 02:16:08;;;;;;;5.25;0.52;;;;;;;-142.37;100.00;59669.53;5094441;28;20475;-59
2023/03/01 02:18:33;;;;;;;7.88;0.60;;;;;;;-142.37;100.00;59669.53;5094195;28;20131;-59
2023/03/01 02:21:29;;;;;;;5.20;0.50;;;;;;;-142.37;100.00;59669.53;5095922;28;20070;-60
2023/03/01 02:23:56;;;;;;;3.40;0.70;;;;;;;-142.37;100.00;59669.53;5094147;28;20028;-59
2023/03/01 02:26:38;;;;;;;4.97;1.27;;;;;;;-142.37;100.00;59669.53;5095312;28;20095;-60
2023/03/01 02:29:05;;;;;;;2.67;0.45;;;;;;;-142.37;100.00;59669.53;5095129;28;20510;-60
2023/03/01 02:31:43;;;;;;;3.92;0.60;;;;;;;-142.37;100.00;59669.53;5095513;28;20119;-59
2023/03/01 02:34:15;;;;;;;3.47;0.40;;;;;;;-142.37;100.00;59669.53;5095464;28;20101;-59
2023/03/01 02:36:47;;;;;;;2.67;0.45;;;;;;;-142.37;100.00;59669.53;5093935;28;20074;-60
2023/03/01 02:39:18;;;;;;;5.47;0.43;;;;;;;-142.37;100.00;59669.53;5094048;28;20028;-60
2023/03/01 02:41:49;;;;;;;5.90;0.68;;;;;;;-142.37;100.00;59669.53;5095036;28;20024;-60
2023/03/01 02:44:15;;;;;;;3.50;0.40;;;;;;;-142.37;100.00;59669.53;5095302;28;20050;-61
2023/03/01 02:46:50;;;;;;;4.80;0.63;;;;;;;-142.37;100.00;59669.53;5095007;28;20536;-61
2023/03/01 02:49:19;;;;;;;2.92;0.45;;;;;;;-142.37;100.00;59669.53;5093739;28;20756;-59
2023/03/01 02:52:09;;;;;;;3.85;0.55;;;;;;;-142.37;100.00;59669.53;5093749;28;20039;-60
2023/03/01 02:54:41;;;;;;;1.58;0.47;;;;;;;-142.37;100.00;59669.53;5094729;28;20035;-60
2023/03/01 02:57:07;;;;;;;6.93;0.70;;;;;;;-142.37;100.00;59669.53;5094727;28;20045;-61
2023/03/01 02:59:39;;;;;;;3.30;0.70;;;;;;;-142.37;100.00;59669.53;5094704;28;20115;-60
2023/03/01 03:02:35;;;;;;;3.67;0.30;;;;;;;-142.37;100.00;59669.53;5095184;28;20103;-59
2023/03/01 03:05:11;;;;;;;1.30;0.30;;;;;;;-142.37;100.00;59669.53;5093494;28;20035;-59
2023/03/01 03:07:39;;;;;;;4.13;0.77;;;;;;;-142.37;100.00;59669.53;5095340;28;20032;-60
2023/03/01 03:10:08;;;;;;;5.32;0.43;;;;;;;-142.37;100.00;59669.53;5094657;28;20077;-60
2023/03/01 03:12:34;;;;;;;1.42;0.50;;;;;;;-142.37;100.00;59669.53;5094616;28;20123;-60
2023/03/01 03:15:00;;;;;;;4.35;0.38;;;;;;;-142.37;100.00;59669.53;5094870;28;20032;-60
2023/03/01 03:17:25;;;;;;;4.20;0.43;;;;;;;-142.37;100.00;59669.53;5094770;28;20032;-59
2023/03/01 03:19:51;;;;;;;4.05;0.68;;;;;;;-142.37;100.00;59669.53;5094859;28;20036;-61
2023/03/01 03:22:16;;;;;;;3.35;0.38;;;;;;;-142.37;100.00;59669.53;5094349;28;20025;-61
2023/03/01 03:24:42;;;;;;;1.25;0.40;;;;;;;-142.37;100.00;59669.53;5092873;28;20055;-59
2023/03/01 03:27:08;;;;;;;4.20;0.80;;;;;;;-142.37;100.00;59669.53;5092862;28;20032;-60
2023/03/01 03:29:34;;;;;;;2.95;0.73;;;;;;;-142.37;100.00;59669.53;5094527;28;20055;-59
2023/03/01 03:32:00;;;;;;;3.17;0.60;;;;;;;-142.37;100.00;59669.53;5092806;28;20036;-59
2023/03/01 03:34:25;;;;;;;4.13;0.77;;;;;;;-142.37;100.00;59669.53;5092852;28;20156;-59
2023/03/01 03:36:56;;;;;;;2.45;0.45;;;;;;;-142.37;100.00;59669.53;5092888;28;20152;-61
2023/03/01 03:39:23;;;;;;;4.55;0.45;;;;;;;-142.37;100.00;59669.53;5093004;28;20126;-60
2023/03/01 03:41:49;;;;;;;3.42;0.50;;;;;;;-142.37;100.00;59669.53;5092685;28;20024;-59
2023/03/01 03:44:14;;;;;;;3.67;0.52;;;;;;;-142.37;100.00;59669.53;5094095;28;20077;-59
2023/03/01 03:46:40;;;;;;;1.70;0.35;;;;;;;-142.37;100.00;59669.53;5094015;28;20370;-60
2023/03/01 03:49:07;;;;;;;1.45;0.40;;;;;;;-142.37;100.00;59669.53;5093742;28;20431;-61
2023/03/01 03:51:32;;;;;;;2.30;0.50;;;;;;;-142.37;100.00;59669.53;5092625;28;20035;-58
2023/03/01 03:53:58;;;;;;;4.60;0.60;;;;;;;-142.37;100.00;59669.53;5093972;28;20455;-60
2023/03/01 03:56:25;;;;;;;3.25;0.40;;;;;;;-142.37;100.00;59669.53;5092943;28;20078;-59
2023/03/01 03:58:52;;;;;;;7.13;0.90;;;;;;;-142.37;100.00;59669.53;5093997;28;20329;-60
2023/03/01 04:01:18;;;;;;;2.15;0.30;;;;;;;-142.37;100.00;59669.53;5094500;28;20150;-60
2023/03/01 04:03:46;;;;;;;3.38;0.70;;;;;;;-142.37;100.00;59669.53;5095107;28;20024;-60
2023/03/01 04:06:15;;;;;;;3.63;0.55;;;;;;;-142.37;100.00;59669.53;5094846;28;20024;-60
2023/03/01 04:08:41;;;;;;;2.85;0.52;;;;;;;-142.37;100.00;59669.53;5094721;28;20028;-59
2023/03/01 04:13:54;;;;;;;3.95;0.32;;;;;;;-142.37;100.00;59669.53;5094419;28;20085;-60
2023/03/01 04:16:20;;;;;;;1.92;0.28;;;;;;;-142.37;100.00;59669.53;5092777;28;20032;-60
2023/03/01 04:18:45;;;;;;;1.23;0.35;;;;;;;-142.37;100.00;59669.53;5092892;28;20622;-61
2023/03/01 04:21:11;;;;;;;1.98;0.30;;;;;;;-142.37;100.00;59669.53;5094444;28;20081;-60
2023/03/01 04:23:38;;;;;;;6.25;0.40;;;;;;;-142.37;100.00;59669.53;5095445;28;20049;-59
2023/03/01 04:26:04;;;;;;;2.05;0.50;;;;;;;-142.37;100.00;59669.53;5096173;28;20488;-60
2023/03/01 04:28:35;;;;;;;2.47;0.70;;;;;;;-142.37;100.00;59669.53;5094617;28;20032;-60
2023/03/01 04:31:13;;;;;;;2.88;0.20;;;;;;;-142.37;100.00;59669.53;5094333;28;20028;-58
2023/03/01 04:33:45;;;;;;;2.75;0.40;;;;;;;-142.37;100.00;59669.53;5093959;28;20034;-59
2023/03/01 04:36:12;;;;;;;5.45;0.32;;;;;;;-142.37;100.00;59669.53;5093779;28;20131;-58
2023/03/01 04:38:38;;;;;;;3.60;0.45;;;;;;;-142.37;100.00;59669.53;5092373;28;20050;-58
2023/03/01 04:41:09;;;;;;;1.48;0.20;;;;;;;-142.37;100.00;59669.53;5091970;28;20042;-60
2023/03/01 04:43:36;;;;;;;3.47;0.47;;;;;;;-142.37;100.00;59669.53;5093819;28;20032;-60
2023/03/01 04:46:12;;;;;;;2.78;0.30;;;;;;;-142.37;100.00;59669.53;5094477;28;20063;-58
2023/03/01 04:48:41;;;;;;;8.10;0.80;;;;;;;-142.37;100.00;59669.53;5094309;28;20108;-59
2023/03/01 04:51:08;;;;;;;2.97;1.10;;;;;;;-142.37;100.00;59669.53;5092172;28;20149;-60
2023/03/01 04:53:36;;;;;;;3.15;0.40;;;;;;;-142.37;100.00;59669.53;5093529;28;20036;-59
2023/03/01 04:56:02;;;;;;;2.22;0.25;;;;;;;-142.37;100.00;59669.53;5093086;28;20020;-58
2023/03/01 04:58:28;;;;;;;1.20;0.30;;;;;;;-142.37;100.00;59669.53;5093923;28;20537;-59
2023/03/01 05:00:54;;;;;;;1.92;0.32;;;;;;;-142.37;100.00;59669.53;5092337;28;20020;-58
2023/03/01 05:03:22;;;;;;;3.92;0.38;;;;;;;-142.37;100.00;59669.53;5091706;28;20113;-58
2023/03/01 05:05:50;;;;;;;2.92;0.35;;;;;;;-142.37;100.00;59669.53;5091603;28;20025;-59
2023/03/01 05:08:18;;;;;;;0.65;0.10;;;;;;;-142.37;100.00;59669.53;5091130;28;20251;-58
2023/03/01 05:10:46;;;;;;;2.80;0.40;;;;;;;-142.37;100.00;59669.53;5091330;28;20031;-58
2023/03/01 05:13:13;;;;;;;5.55;0.75;;;;;;;-142.37;100.00;59669.53;5093081;28;20153;-59
2023/03/01 05:15:39;;;;;;;2.20;0.32;;;;;;;-142.37;100.00;59669.53;5091073;28;20173;-59
2023/03/01 05:18:11;;;;;;;7.15;0.63;;;;;;;-142.37;100.00;59669.53;5093242;28;20154;-59
2023/03/01 05:20:37;;;;;;;1.85;0.40;;;;;;;-142.37;100.00;59669.53;5093893;28;20106;-60
2023/03/01 05:23:05;;;;;;;1.83;0.40;;;;;;;-142.37;100.00;59669.53;5093422;28;20020;-58
2023/03/01 05:25:34;;;;;;;4.68;0.60;;;;;;;-142.37;100.00;59669.53;5093599;28;20024;-62
2023/03/01 05:28:04;;;;;;;5.97;0.60;;;;;;;-142.37;100.00;59669.53;5091795;28;20024;-56
2023/03/01 05:30:33;;;;;;;2.53;0.40;;;;;;;-142.37;100.00;59669.53;5091807;28;20396;-58
2023/03/01 05:33:00;;;;;;;3.22;1.20;;;;;;;-142.37;100.00;59669.53;5092734;28;20451;-59
2023/03/01 05:35:26;;;;;;;7.45;0.80;;;;;;;-142.37;100.00;59669.53;5092670;28;20038;-60
2023/03/01 05:37:52;;;;;;;6.47;0.47;;;;;;;-142.37;100.00;59669.53;5091010;28;20123;-58
2023/03/01 05:40:21;;;;;;;4.25;0.73;;;;;;;-142.37;100.00;59669.53;5092138;28;20516;-58
2023/03/01 05:42:55;;;;;;;2.25;0.60;;;;;;;-142.37;100.00;59669.53;5092498;28;20059;-60
2023/03/01 05:45:23;;;;;;;6.57;0.43;;;;;;;-142.37;100.00;59669.53;5092204;28;20032;-60
2023/03/01 05:47:50;;;;;;;2.22;0.20;;;;;;;-142.37;100.00;59669.53;5090998;28;20028;-61
2023/03/01 05:50:22;;;;;;;3.30;0.30;;;;;;;-142.37;100.00;59669.53;5091826;28;20456;-60
2023/03/01 05:52:50;;;;;;;1.10;0.20;;;;;;;-142.37;100.00;59669.53;5091371;28;20032;-59
2023/03/01 05:55:19;;;;;;;2.03;0.43;;;;;;;-142.37;100.00;59669.53;5092355;28;20044;-59
2023/03/01 05:57:45;;;;;;;6.68;0.88;;;;;;;-142.37;100.00;59669.53;5090678;28;20045;-60
2023/03/01 06:00:13;;;;;;;11.18;1.38;;;;;;;-142.37;100.00;59669.53;5090459;28;20322;-61
2023/03/01 06:02:40;;;;;;;1.30;0.25;;;;;;;-142.37;100.00;59669.53;5091592;28;20016;-59
2023/03/01 06:05:07;;;;;;;2.30;0.50;;;;;;;-142.37;100.00;59669.53;5092066;28;20477;-59
2023/03/01 06:07:33;;;;;;;8.60;0.50;;;;;;;-142.37;100.00;59669.53;5090299;28;20020;-60
2023/03/01 06:09:59;;;;;;;3.38;0.43;;;;;;;-142.37;100.00;59669.53;5091896;28;20076;-60
2023/03/01 06:12:25;;;;;;;1.05;0.20;;;;;;;-142.37;100.00;59669.53;5091070;28;20115;-58
2023/03/01 06:14:50;;;;;;;0.63;0.10;;;;;;;-142.37;100.00;59669.53;5092300;28;20085;-59
2023/03/01 06:17:16;;;;;;;0.73;0.10;;;;;;;-142.37;100.00;59669.53;5091258;28;20515;-60
2023/03/01 06:19:42;;;;;;;4.63;0.75;;;;;;;-142.37;100.00;59669.53;5092010;28;20476;-60
2023/03/01 06:22:08;;;;;;;3.83;0.50;;;;;;;-142.37;100.00;59669.53;5090821;28;20127;-58
2023/03/01 06:24:34;;;;;;;2.35;0.30;;;;;;;-142.37;100.00;59669.53;5090720;28;20200;-60
2023/03/01 06:27:00;;;;;;;2.53;0.30;;;;;;;-142.37;100.00;59669.53;5091206;28;20378;-60
2023/03/01 06:29:25;;;;;;;4.60;0.20;;;;;;;-142.37;100.00;59669.53;5093228;28;20162;-58
2023/03/01 06:31:51;;;;;;;3.13;0.40;;;;;;;-142.37;100.00;59669.53;5095148;28;20485;-61
2023/03/01 06:34:16;;;;;;;3.05;0.40;;;;;;;-142.37;100.00;59669.53;5094847;28;20028;-61
2023/03/01 06:36:42;;;;;;;5.88;0.90;;;;;;;-142.37;100.00;59669.53;5094867;28;20036;-61
2023/03/01 06:39:08;;;;;;;4.03;0.17;;;;;;;-142.37;100.00;59669.53;5093601;28;20041;-61
2023/03/01 06:41:33;;;;;;;1.27;0.30;;;;;;;-142.37;100.00;59669.53;5093606;28;20028;-60
2023/03/01 06:43:59;;;;;;;2.20;0.25;;;;;;;-142.37;100.00;59669.53;5094680;28;20068;-59
2023/03/01 06:46:25;;;;;;;4.63;0.60;;;;;;;-142.37;100.00;59669.53;5094765;28;20032;-61
2023/03/01 06:48:51;;;;;;;1.45;0.35;;;;;;;-142.37;100.00;59669.53;5094393;28;20023;-61
2023/03/01 06:51:17;;;;;;;2.65;0.40;;;;;;;-142.37;100.00;59669.53;5093973;28;20529;-61
2023/03/01 06:53:42;;;;;;;1.63;0.32;;;;;;;-142.37;100.00;59669.53;5094567;28;20088;-60
2023/03/01 06:56:08;;;;;;;0.98;0.20;;;;;;;-142.37;100.00;59669.53;5092814;28;20124;-60
2023/03/01 06:58:34;;;;;;;1.73;0.50;;;;;;;-142.37;100.00;59669.53;5093027;28;20403;-58
2023/03/01 07:01:06;;;;;;;1.63;0.40;;;;;;;-142.37;100.00;59669.53;5092240;28;20055;-61
2023/03/01 07:03:31;;;;;;;3.50;0.45;;;;;;;-142.37;100.00;59669.53;5094037;28;20070;-60
2023/03/01 07:05:57;;;;;;;7.82;0.70;;;;;;;-142.37;100.00;59669.53;5093041;28;20365;-60
2023/03/01 07:08:23;;;;;;;3.92;0.60;;;;;;;-142.37;100.00;59669.53;5092453;28;20444;-62
2023/03/01 07:10:54;;;;;;;3.45;0.50;;;;;;;-142.37;100.00;59669.53;5093454;28;20032;-62
2023/03/01 07:13:19;;;;;;;5.70;0.52;;;;;;;-142.37;100.00;59669.53;5094000;28;20032;-59
2023/03/01 07:15:46;;;;;;;3.90;0.70;;;;;;;-142.37;100.00;59669.53;5093655;28;20038;-60
2023/03/01 07:18:12;;;;;;;5.28;0.73;;;;;;;-142.37;100.00;59669.53;5091875;28;20469;-60
2023/03/01 07:20:37;;;;;;;5.75;0.88;;;;;;;-142.37;100.00;59669.53;5093455;28;20070;-60
2023/03/01 07:23:06;;;;;;;1.83;0.38;;;;;;;-142.37;100.00;59669.53;5093622;28;20035;-60
2023/03/01 07:25:32;;;;;;;4.95;0.70;;;;;;;-142.37;100.00;59669.53;5094075;28;20024;-61
2023/03/01 07:27:58;;;;;;;5.38;0.63;;;;;;;-142.37;100.00;59669.53;5093872;28;20107;-58
2023/03/01 07:30:27;;;;;;;5.75;0.60;;;;;;;-142.37;100.00;59669.53;5092060;28;20326;-61
2023/03/01 07:32:53;;;;;;;5.78;0.82;;;;;;;-142.37;100.00;59669.53;5093686;28;20545;-61
2023/03/01 07:35:19;;;;;;;1.10;0.20;;;;;;;-142.37;100.00;59669.53;5093332;28;20069;-61
2023/03/01 07:37:44;;;;;;;6.38;0.50;;;;;;;-142.37;100.00;59669.53;5093351;28;20024;-60
2023/03/01 07:40:11;;;;;;;3.13;0.40;;;;;;;-142.37;100.00;59669.53;5091608;28;20047;-60
2023/03/01 07:42:37;;;;;;;2.95;0.80;;;;;;;-142.37;100.00;59669.53;5093549;28;20028;-60
2023/03/01 07:45:04;;;;;;;1.52;0.40;;;;;;;-142.37;100.00;59669.53;5093067;28;20042;-62
2023/03/01 07:47:30;;;;;;;4.25;0.40;;;;;;;-142.37;100.00;59669.53;5092060;28;20056;-61
2023/03/01 07:49:56;;;;;;;2.58;0.57;;;;;;;-142.37;100.00;59669.53;5092085;28;20024;-61
2023/03/01 07:52:22;;;;;;;4.43;0.40;;;;;;;-142.37;100.00;59669.53;5092990;28;20032;-61
2023/03/01 07:54:47;;;;;;;5.15;0.95;;;;;;;-142.37;100.00;59669.53;5093232;28;20086;-61
2023/03/01 07:57:13;;;;;;;2.40;0.40;;;;;;;-142.37;100.00;59669.53;5092439;28;20027;-59
2023/03/01 07:59:39;;;;;;;2.58;0.50;;;;;;;-142.37;100.00;59669.53;5093205;28;20051;-60
2023/03/01 08:02:05;;;;;;;3.40;0.60;;;;;;;-142.37;100.00;59669.53;5092942;28;20438;-60
2023/03/01 08:04:32;;;;;;;4.82;0.40;;;;;;;-142.37;100.00;59669.53;5091906;28;20054;-61
2023/03/01 08:06:58;;;;;;;4.88;1.60;;;;;;;-142.37;100.00;59669.53;5092585;28;20032;-61
2023/03/01 08:09:24;;;;;;;3.75;1.13;;;;;;;-142.37;100.00;59669.53;5091231;28;20069;-61
2023/03/01 08:11:50;;;;;;;1.85;0.50;;;;;;;-142.37;100.00;59669.53;5091019;28;20134;-61
2023/03/01 08:14:16;;;;;;;4.35;0.63;;;;;;;-142.37;100.00;59669.53;5092964;28;20047;-61
2023/03/01 08:16:42;;;;;;;7.13;0.55;;;;;;;-142.37;100.00;59669.53;5091818;28;20032;-61
2023/03/01 08:19:11;;;;;;;7.07;0.50;;;;;;;-142.37;100.00;59669.53;5092285;28;20131;-61
2023/03/01 08:21:37;;;;;;;7.30;0.93;;;;;;;-142.37;100.00;59669.53;5092953;28;20488;-61
2023/03/01 08:24:05;;;;;;;3.30;0.50;;;;;;;-142.37;100.00;59669.53;5092923;28;20093;-60
2023/03/01 08:26:32;;;;;;;1.85;0.50;;;;;;;-142.37;100.00;59669.53;5092933;28;20024;-59
2023/03/01 08:29:00;;;;;;;5.05;0.63;;;;;;;-142.37;100.00;59669.53;5091313;28;20035;-61
2023/03/01 08:31:32;;;;;;;3.55;0.85;;;;;;;-142.37;100.00;59669.53;5092760;28;20035;-62
2023/03/01 08:34:00;;;;;;;2.28;0.65;;;;;;;-142.37;100.00;59669.53;5091217;28;20039;-61
2023/03/01 08:36:28;;;;;;;6.32;1.85;;;;;;;-142.37;100.00;59669.53;5091750;28;20055;-60
2023/03/01 08:38:54;;;;;;;5.47;1.05;;;;;;;-142.37;100.00;59669.53;5092835;28;20054;-61
2023/03/01 08:41:20;;;;;;;5.25;1.33;;;;;;;-142.37;100.00;59669.53;5092940;28;20031;-62
2023/03/01 08:43:46;;;;;;;7.57;0.88;;;;;;;-142.37;100.00;59669.53;5091412;28;20468;-61
2023/03/01 08:46:12;;;;;;;4.75;0.50;;;;;;;-142.37;100.00;59669.53;5092996;28;20120;-60
2023/03/01 08:48:39;;;;;;;3.42;0.43;;;;;;;-142.37;100.00;59669.53;5092706;28;20024;-61
2023/03/01 08:51:16;;;;;;;2.70;0.43;;;;;;;-142.37;100.00;59669.53;5091675;28;20449;-61
2023/03/01 08:53:42;;;;;;;5.75;0.70;;;;;;;-142.37;100.00;59669.53;5092824;28;20503;-60
2023/03/01 08:56:08;;;;;;;4.05;0.90;;;;;;;-142.37;100.00;59669.53;5092359;28;20035;-59
2023/03/01 08:58:35;;;;;;;4.82;0.70;;;;;;;-142.37;100.00;59669.53;5093271;28;20027;-60
2023/03/01 09:01:01;;;;;;;2.55;0.40;;;;;;;-142.37;100.00;59669.53;5092127;28;20016;-59
2023/03/01 09:03:27;;;;;;;8.57;0.75;;;;;;;-142.37;100.00;59669.53;5092573;28;20024;-61
2023/03/01 09:05:59;;;;;;;6.70;0.73;;;;;;;-142.37;100.00;59669.53;5091419;28;20083;-62
2023/03/01 09:08:25;;;;;;;2.58;0.20;;;;;;;-142.37;100.00;59669.53;5092727;28;20035;-60
2023/03/01 09:10:50;;;;;;;7.97;1.35;;;;;;;-142.37;100.00;59669.53;5091022;28;20028;-59
2023/03/01 09:13:16;;;;;;;2.67;0.50;;;;;;;-142.37;100.00;59669.53;5090598;28;20105;-62
2023/03/01 09:15:42;;;;;;;13.77;1.80;;;;;;;-142.37;100.00;59669.53;5092302;28;20564;-58
2023/03/01 09:18:07;;;;;;;3.90;1.23;;;;;;;-142.37;100.00;59669.53;5092145;28;20094;-61
2023/03/01 09:20:33;;;;;;;11.40;0.77;;;;;;;-142.37;100.00;59669.53;5090568;28;20020;-61
2023/03/01 09:22:59;;;;;;;3.85;0.40;;;;;;;-142.37;100.00;59669.53;5092441;28;20039;-59
2023/03/01 09:25:25;;;;;;;45.90;2.38;;;;;;;-142.37;100.00;59669.53;5090732;28;20169;-61
2023/03/01 09:27:52;;;;;;;5.40;0.60;;;;;;;-142.37;100.00;59669.53;5092055;28;20040;-61
2023/03/01 09:30:18;;;;;;;3.33;0.40;;;;;;;-142.37;100.00;59669.53;5090461;28;20024;-62
2023/03/01 09:32:44;;;;;;;9.45;0.95;;;;;;;-142.37;100.00;59669.53;5092323;28;20020;-62
2023/03/01 09:35:11;;;;;;;11.52;3.72;;;;;;;-142.37;100.00;59669.53;5091661;28;20024;-61
2023/03/01 09:37:37;;;;;;;4.45;1.10;;;;;;;-142.37;100.00;59669.53;5091525;28;20028;-61
2023/03/01 09:40:05;;;;;;;10.73;0.85;;;;;;;-142.37;100.00;59669.53;5090355;28;20032;-60
2023/03/01 09:42:34;;;;;;;2.10;0.40;;;;;;;-142.37;100.00;59669.53;5091824;28;20028;-61
2023/03/01 09:45:05;;;;;;;24.67;10.68;;;;;;;-142.37;100.00;59669.53;5091415;28;20036;-60
2023/03/01 09:47:33;;;;;;;12.75;1.60;;;;;;;-142.37;100.00;59669.53;5091962;28;20362;-60
2023/03/01 09:50:19;;;;;;;8.90;1.33;;;;;;;-142.37;100.00;59669.53;5090230;28;20032;-61
2023/03/01 09:52:51;;;;;;;12.82;1.55;;;;;;;-142.37;100.00;59669.53;5091291;28;20028;-62
2023/03/01 09:55:25;;;;;;;7.60;0.82;;;;;;;-142.37;100.00;59669.53;5093281;28;20064;-61
2023/03/01 09:58:52;;;;;;;11.30;1.63;;;;;;;-142.37;100.00;59669.53;5093671;28;20024;-60
2023/03/01 10:01:25;;;;;;;;;;;;;;;-142.37;100.00;59669.53;5021682;28;20045;-60
2023/03/01 10:04:25;;;;;;;8.43;0.70;;;;;;;-142.37;100.00;59669.53;5095942;28;20449;-61
2023/03/01 10:07:09;;;;;;;16.48;1.60;;;;;;;-142.37;100.00;59669.53;5096326;28;20115;-61
2023/03/01 10:09:38;;;;;;;9.60;1.05;;;;;;;-142.37;100.00;59669.53;5097858;28;20032;-62
2023/03/01 10:12:17;;;;;;;10.80;1.40;;;;;;;-142.37;100.00;59669.53;5095378;28;20040;-61
2023/03/01 10:15:00;;;;;;;11.52;1.60;;;;;;;-142.37;100.00;59669.53;5095135;28;20028;-61
2023/03/01 10:18:07;;;;;;;38.40;4.35;;;;;;;-142.37;100.00;59669.53;5094423;28;20028;-63
2023/03/01 10:20:58;;;;;;;16.42;1.08;;;;;;;-142.37;100.00;59669.53;5095997;28;20419;-61
2023/03/01 10:23:25;;;;;;;14.50;2.05;;;;;;;-142.37;100.00;59669.53;5094925;28;20123;-60
2023/03/01 10:26:00;;;;;;;5.85;1.38;;;;;;;-142.37;100.00;59669.53;5093250;28;20518;-61
2023/03/01 10:28:51;;;;;;;;;;;;;;;-142.37;100.00;59669.53;5095340;28;20032;-61
2023/03/01 10:31:27;;;;;;;25.77;2.70;;;;;;;-142.37;100.00;59669.53;5091999;28;20260;-60
2023/03/01 10:33:55;;;;;;;19.38;1.70;;;;;;;-142.37;100.00;59669.53;5094184;28;20081;-61
2023/03/01 10:36:23;;;;;;;14.20;1.83;;;;;;;-142.37;100.00;59669.53;5094135;28;20020;-62
2023/03/01 10:38:57;;;;;;;18.65;1.92;;;;;;;-142.37;100.00;59669.53;5094630;28;20097;-61
2023/03/01 10:41:25;;;;;;;14.27;1.70;;;;;;;-142.37;100.00;59669.53;5094362;28;20036;-60
2023/03/01 10:43:54;;;;;;;22.80;1.65;;;;;;;-142.37;100.00;59669.53;5093699;28;20139;-62
2023/03/01 10:46:35;;;;;;;8.35;1.42;;;;;;;-142.37;100.00;59669.53;5094956;28;20036;-62
2023/03/01 10:49:15;;;;;;;11.50;1.27;;;;;;;-142.37;100.00;59669.53;5094594;28;20060;-61
2023/03/01 10:51:43;;;;;;;15.57;2.20;;;;;;;-142.37;100.00;59669.53;5094165;28;20506;-62
2023/03/01 10:54:30;;;;;;;115.63;11.38;;;;;;;-142.37;100.00;59669.53;5092882;28;20198;-62
2023/03/01 10:57:00;;;;;;;21.38;3.30;;;;;;;-142.37;100.00;59669.53;5094252;28;20040;-59
2023/03/01 10:59:34;;;;;;;25.83;2.38;;;;;;;-142.37;100.00;59669.53;5094607;28;20474;-61
2023/03/01 11:02:16;;;;;;;9.88;2.15;;;;;;;-142.37;100.00;59669.53;5094165;28;20380;-61
2023/03/01 11:05:13;;;;;;;4.80;1.15;;;;;;;-142.37;100.00;59669.53;5094143;28;20039;-61
2023/03/01 11:07:56;;;;;;;90.38;7.38;;;;;;;-142.37;100.00;59669.53;5093678;28;20435;-62
2023/03/01 11:10:33;;;;;;;10.85;1.05;;;;;;;-142.37;100.00;59669.53;5092107;28;20024;-61
2023/03/01 11:13:15;;;;;;;8.40;1.38;;;;;;;-142.37;100.00;59669.53;5093768;28;20032;-63
2023/03/01 11:15:42;;;;;;;13.77;1.27;;;;;;;-142.37;100.00;59669.53;5093770;28;20449;-61
2023/03/01 11:18:23;;;;;;;23.42;2.35;;;;;;;-142.37;100.00;59669.53;5092433;28;20055;-61
2023/03/01 11:20:53;;;;;;;12.38;1.20;;;;;;;-142.37;100.00;59669.53;5093325;28;20032;-61
2023/03/01 11:23:21;;;;;;;10.68;1.85;;;;;;;-142.37;100.00;59669.53;5092659;28;20028;-61